< Typhoon 201501 2015 Season Typhoon 201503 >
Typhoon 201502 (HIGOS)
General InformationTrack Information on Google MapsDetailed Wind InformationForecast History on Google MapsAccess Analytics MapList of All Images || NewsDisaster Info.WeblogTrackbackTyphoon FrontTwiphoonTyphoon Now!Typhoon ImaginationDisaster Info. XMLResourceGoogle EarthGE AnimationAtom FeedGeoJSON
Detalied Best Track (Time Zone = UTC)
Year Month Day Hour Lat. Long. Pressure (hPa) Wind (kt) Class Image Chart
2015 2 6 12 8.6 158.3 1008 0 2 Image Chart
2015 2 6 18 9.1 157.9 1006 0 2 Image Chart
2015 2 7 00 9.7 157.7 1004 0 2 Image Chart
2015 2 7 06 10.3 157.4 1004 0 2 Image Chart
2015 2 7 12 10.8 157.5 1004 0 2 Image Chart
2015 2 7 18 11.6 157.5 1000 35 3 Image Chart
2015 2 8 00 11.9 157.3 996 40 3 Image Chart
2015 2 8 06 12.0 157.0 990 45 3 Image Chart
2015 2 8 12 11.9 156.9 990 45 3 Image Chart
2015 2 8 18 11.9 156.7 985 50 4 Image Chart
2015 2 9 00 12.1 156.4 985 50 4 Image Chart
2015 2 9 06 12.3 156.1 980 55 4 Image Chart
2015 2 9 12 12.6 155.7 975 60 4 Image Chart
2015 2 9 18 13.0 155.2 965 70 5 Image Chart
2015 2 10 00 13.6 154.7 955 80 5 Image Chart
2015 2 10 06 14.2 154.2 940 90 5 Image Chart
2015 2 10 12 14.7 154.1 955 80 5 Image Chart
2015 2 10 18 15.0 153.6 975 65 5 Image Chart
2015 2 11 00 15.3 153.2 990 50 4 Image Chart
2015 2 11 06 15.5 152.8 994 40 3 Image Chart
2015 2 11 12 16.1 152.5 1002 0 2 Image Chart
2015 2 11 18 16.5 152.2 1004 0 2 Image Chart
2015 2 12 00 16.6 152.1 1006 0 2 Image Chart
2015 2 12 06 17.4 152.6 1004 0 2 Image Chart
2015 2 12 12 18.2 152.8 1008 0 2 Image Chart
Japan Meteorological Agency Best Track Data | Correction Date : 2015-03-04
< Typhoon 201501 2015 Season Typhoon 201503 >

Help